createdAt,value
2023-02-14T00:03:18.738Z,65.46
2023-02-14T00:08:20.373Z,65.63
2023-02-14T00:13:21.957Z,65.21
2023-02-14T00:18:43.525Z,65.24
2023-02-14T00:23:44.948Z,66.29
2023-02-14T00:28:46.560Z,66.07
2023-02-14T00:33:48.131Z,65.97
2023-02-14T00:38:49.716Z,65.85
2023-02-14T00:43:53.463Z,66.00
2023-02-14T00:48:55.479Z,65.91
2023-02-14T00:53:57.146Z,65.84
2023-02-14T00:58:58.754Z,65.80
2023-02-14T01:04:00.442Z,65.77
2023-02-14T01:09:02.105Z,66.10
2023-02-14T01:14:03.727Z,66.12
2023-02-14T01:19:05.368Z,65.99
2023-02-14T01:24:08.208Z,65.81
2023-02-14T01:29:09.831Z,65.86
2023-02-14T01:34:11.455Z,65.81
2023-02-14T01:39:17.745Z,65.90
2023-02-14T01:44:19.297Z,66.17
2023-02-14T01:49:27.335Z,66.06
2023-02-14T01:54:31.337Z,65.67
2023-02-14T01:59:38.319Z,65.90
2023-02-14T02:04:44.920Z,65.96
2023-02-14T02:09:53.266Z,65.69
2023-02-14T02:14:57.124Z,65.98
2023-02-14T02:20:01.832Z,66.22
2023-02-14T02:25:09.303Z,66.21
2023-02-14T02:30:28.923Z,66.34
2023-02-14T02:35:52.310Z,66.15
2023-02-14T02:41:02.020Z,66.16
2023-02-14T02:46:29.376Z,66.05
2023-02-14T02:52:18.294Z,65.97
2023-02-14T02:57:26.991Z,66.01
2023-02-14T03:02:56.656Z,66.30
2023-02-14T03:07:58.325Z,65.95
2023-02-14T03:13:31.990Z,66.10
2023-02-14T03:18:42.538Z,66.06
2023-02-14T03:23:57.874Z,66.32
2023-02-14T03:29:07.485Z,65.93
2023-02-14T03:34:46.492Z,66.12
2023-02-14T03:40:09.314Z,65.97
2023-02-14T03:45:16.875Z,66.07
2023-02-14T03:50:20.415Z,66.00
2023-02-14T03:55:36.210Z,66.02
2023-02-14T04:00:42.035Z,66.18
2023-02-14T04:05:46.819Z,66.34
2023-02-14T04:10:49.897Z,66.32
2023-02-14T04:15:51.615Z,66.21
2023-02-14T04:20:53.402Z,66.08
2023-02-14T04:25:55.062Z,65.85
2023-02-14T04:30:57.237Z,66.04
2023-02-14T04:36:00.104Z,66.16
2023-02-14T04:41:02.177Z,66.38
2023-02-14T04:46:04.140Z,66.06
2023-02-14T04:51:06.826Z,65.89
2023-02-14T04:56:08.982Z,65.88
2023-02-14T05:01:10.680Z,65.77
2023-02-14T05:06:12.450Z,65.74
2023-02-14T05:11:14.573Z,65.87
2023-02-14T05:16:16.554Z,66.13
2023-02-14T05:21:18.269Z,66.02
2023-02-14T05:26:19.897Z,66.24
2023-02-14T05:31:21.612Z,66.15
2023-02-14T05:36:23.477Z,65.94
2023-02-14T05:41:25.062Z,66.16
2023-02-14T05:46:26.679Z,65.91
2023-02-14T05:51:28.316Z,65.96
2023-02-14T05:56:29.897Z,66.04
2023-02-14T06:01:32.041Z,65.66
2023-02-14T06:06:36.277Z,65.44
2023-02-14T06:11:38.200Z,65.45
2023-02-14T06:16:39.853Z,65.61
2023-02-14T06:21:41.483Z,65.18
2023-02-14T06:26:43.077Z,65.16
2023-02-14T06:31:44.915Z,64.97
2023-02-14T06:36:46.659Z,65.09
2023-02-14T06:41:48.298Z,64.93
2023-02-14T06:46:49.916Z,64.66
2023-02-14T06:51:51.526Z,64.88
2023-02-14T06:56:53.135Z,65.28
2023-02-14T07:01:54.750Z,65.16
2023-02-14T07:06:56.998Z,65.35
2023-02-14T07:11:58.616Z,65.33
2023-02-14T07:17:01.318Z,65.31
2023-02-14T07:22:03.133Z,65.12
2023-02-14T07:27:04.764Z,64.79
2023-02-14T07:32:06.621Z,65.12
2023-02-14T07:37:08.496Z,65.81
2023-02-14T07:42:12.344Z,65.87
2023-02-14T07:47:13.990Z,66.25
2023-02-14T07:52:15.706Z,66.37
2023-02-14T07:57:17.679Z,66.49
2023-02-14T08:02:21.065Z,66.18
2023-02-14T08:07:22.636Z,66.24
2023-02-14T08:12:43.026Z,66.03
2023-02-14T08:17:44.635Z,65.81
2023-02-14T08:22:46.297Z,65.63
2023-02-14T08:27:47.950Z,65.65
2023-02-14T08:32:49.655Z,65.40
2023-02-14T08:37:51.306Z,65.53
2023-02-14T08:42:52.922Z,65.39
2023-02-14T08:47:54.558Z,65.71
2023-02-14T08:52:56.351Z,66.07
2023-02-14T08:57:58.197Z,66.45
2023-02-14T09:03:00.029Z,66.56
2023-02-14T09:08:03.101Z,66.66
2023-02-14T09:13:04.902Z,66.56
2023-02-14T09:18:06.537Z,66.82
2023-02-14T09:23:08.149Z,67.01
2023-02-14T09:28:10.023Z,66.41
2023-02-14T09:33:11.668Z,65.88
2023-02-14T09:38:13.240Z,65.47
2023-02-14T09:43:23.383Z,65.07
2023-02-14T09:48:38.433Z,65.63
2023-02-14T09:53:45.495Z,65.33
2023-02-14T09:59:03.877Z,65.28
2023-02-14T10:04:17.226Z,65.68
2023-02-14T10:09:40.874Z,65.79
2023-02-14T10:14:43.748Z,66.03
2023-02-14T10:19:52.995Z,66.20
2023-02-14T10:25:04.956Z,66.16
2023-02-14T10:30:22.109Z,66.35
2023-02-14T10:35:46.721Z,66.07
2023-02-14T10:41:14.510Z,65.74
2023-02-14T10:46:28.600Z,66.00
2023-02-14T10:51:46.044Z,65.51
2023-02-14T10:57:00.649Z,64.72
2023-02-14T11:02:02.482Z,64.49
2023-02-14T11:07:13.526Z,64.07
2023-02-14T11:12:37.558Z,64.23
2023-02-14T11:17:39.186Z,63.91
2023-02-14T11:22:41.285Z,63.68
2023-02-14T11:27:49.892Z,63.52
2023-02-14T11:32:55.185Z,63.91
2023-02-14T11:37:57.962Z,63.88
2023-02-14T11:43:17.354Z,63.60
2023-02-14T11:48:37.631Z,63.98
2023-02-14T11:53:56.081Z,63.96
2023-02-14T11:59:03.442Z,63.27
2023-02-14T12:04:19.789Z,62.24
2023-02-14T12:09:28.148Z,62.32
2023-02-14T12:14:32.645Z,63.12
2023-02-14T12:19:51.825Z,62.69
2023-02-14T12:25:07.632Z,61.16
2023-02-14T12:30:18.239Z,61.85
2023-02-14T12:35:28.253Z,62.13
2023-02-14T12:40:49.246Z,62.08
2023-02-14T12:46:03.094Z,62.79
2023-02-14T12:51:30.071Z,63.37
2023-02-14T12:56:51.727Z,62.82
2023-02-14T13:01:54.078Z,62.80
2023-02-14T13:07:13.827Z,62.74
2023-02-14T13:12:43.549Z,62.79
2023-02-14T13:17:56.446Z,62.70
2023-02-14T13:23:04.278Z,62.88
2023-02-14T13:28:13.122Z,62.23
2023-02-14T13:33:41.555Z,62.24
2023-02-14T13:38:46.677Z,62.40
2023-02-14T13:43:51.177Z,61.99
2023-02-14T13:49:21.947Z,61.69
2023-02-14T13:54:34.394Z,61.63
2023-02-14T13:59:36.278Z,61.92
2023-02-14T14:04:38.281Z,61.79
2023-02-14T14:09:42.874Z,61.56
2023-02-14T14:15:04.422Z,61.76
2023-02-14T14:20:29.353Z,63.01
2023-02-14T14:25:32.782Z,62.79
2023-02-14T14:30:34.511Z,62.30
2023-02-14T14:35:36.304Z,61.72
2023-02-14T14:40:38.501Z,61.88
2023-02-14T14:45:42.336Z,61.79
2023-02-14T14:50:47.830Z,61.77
2023-02-14T14:55:52.234Z,61.84
2023-02-14T15:00:54.733Z,62.26
2023-02-14T15:06:17.393Z,62.09
2023-02-14T15:11:42.081Z,62.41
2023-02-14T15:16:48.788Z,62.84
2023-02-14T15:21:50.597Z,62.92
2023-02-14T15:26:53.499Z,62.96
2023-02-14T15:31:57.576Z,63.11
2023-02-14T15:37:06.229Z,63.47
2023-02-14T15:42:25.869Z,62.89
2023-02-14T15:47:27.547Z,63.27
2023-02-14T15:52:29.300Z,63.32
2023-02-14T15:57:30.951Z,63.91
2023-02-14T16:02:38.946Z,63.98
2023-02-14T16:07:40.622Z,63.89
2023-02-14T16:12:42.429Z,64.16
2023-02-14T16:17:44.158Z,64.23
2023-02-14T16:22:45.755Z,64.24
2023-02-14T16:27:47.418Z,64.47
2023-02-14T16:32:50.808Z,64.47
2023-02-14T16:37:52.945Z,64.31
2023-02-14T16:42:55.322Z,64.52
2023-02-14T16:47:56.955Z,64.67
2023-02-14T16:52:58.647Z,64.83
2023-02-14T16:58:01.894Z,64.72
2023-02-14T17:03:06.346Z,64.89
2023-02-14T17:08:11.809Z,64.78
2023-02-14T17:13:15.792Z,64.53
2023-02-14T17:18:19.943Z,64.56
2023-02-14T17:23:23.449Z,64.53
2023-02-14T17:28:26.634Z,64.51
2023-02-14T17:33:30.666Z,64.73
2023-02-14T17:38:33.610Z,65.03
2023-02-14T17:43:35.866Z,65.20
2023-02-14T17:48:37.566Z,65.42
2023-02-14T17:53:41.403Z,65.05
2023-02-14T17:58:47.907Z,65.09
2023-02-14T18:03:51.885Z,64.96
2023-02-14T18:08:57.041Z,65.33
2023-02-14T18:13:59.794Z,65.31
2023-02-14T18:19:05.516Z,65.42
2023-02-14T18:24:07.540Z,65.30
2023-02-14T18:29:10.402Z,65.49
2023-02-14T18:34:12.160Z,65.77
2023-02-14T18:39:13.820Z,65.91
2023-02-14T18:44:15.411Z,66.30
2023-02-14T18:49:17.040Z,66.14
2023-02-14T18:54:19.297Z,66.43
2023-02-14T18:59:20.941Z,66.49
2023-02-14T19:04:22.547Z,66.13
2023-02-14T19:09:27.388Z,66.11
2023-02-14T19:14:29.004Z,65.75
2023-02-14T19:19:31.556Z,66.25
2023-02-14T19:24:33.149Z,66.16
2023-02-14T19:29:34.963Z,66.19
2023-02-14T19:34:38.408Z,66.18
2023-02-14T19:39:39.992Z,65.96
2023-02-14T19:44:41.566Z,65.91
2023-02-14T19:49:43.608Z,65.53
2023-02-14T19:54:45.657Z,66.12
2023-02-14T19:59:47.773Z,66.02
2023-02-14T20:04:49.584Z,66.06
2023-02-14T20:09:51.172Z,65.82
2023-02-14T20:14:54.487Z,65.96
2023-02-14T20:19:57.313Z,66.44
2023-02-14T20:24:59.393Z,66.71
2023-02-14T20:30:01.552Z,66.72
2023-02-14T20:35:04.314Z,66.75
2023-02-14T20:40:10.165Z,66.53
2023-02-14T20:45:12.580Z,66.23
2023-02-14T20:50:14.804Z,66.53
2023-02-14T20:55:17.396Z,67.06
2023-02-14T21:00:19.969Z,67.47
2023-02-14T21:05:22.049Z,67.54
2023-02-14T21:10:24.005Z,67.18
2023-02-14T21:15:26.585Z,67.04
2023-02-14T21:20:29.041Z,67.70
2023-02-14T21:25:32.438Z,67.88
2023-02-14T21:30:34.156Z,68.05
2023-02-14T21:35:37.841Z,67.67
2023-02-14T21:40:39.667Z,67.54
2023-02-14T21:45:55.089Z,67.85
2023-02-14T21:50:57.914Z,67.72
2023-02-14T21:56:11.724Z,67.81
2023-02-14T22:01:38.682Z,67.33
2023-02-14T22:06:42.790Z,67.69
2023-02-14T22:11:47.627Z,67.53
2023-02-14T22:16:49.234Z,67.63
2023-02-14T22:21:50.858Z,67.27
2023-02-14T22:26:52.436Z,67.17
2023-02-14T22:31:54.112Z,67.55
2023-02-14T22:36:55.855Z,67.54
2023-02-14T22:41:57.565Z,67.01
2023-02-14T22:46:59.221Z,67.22
2023-02-14T22:52:00.857Z,67.77
2023-02-14T22:57:02.491Z,67.51
2023-02-14T23:02:04.275Z,67.27
2023-02-14T23:07:05.950Z,67.35
2023-02-14T23:12:27.529Z,67.39
2023-02-14T23:18:07.345Z,68.02
2023-02-14T23:23:08.921Z,67.76
2023-02-14T23:28:10.492Z,67.44
2023-02-14T23:33:12.065Z,67.55
2023-02-14T23:38:13.683Z,67.77
2023-02-14T23:43:15.276Z,67.86
2023-02-14T23:48:16.933Z,68.16
2023-02-14T23:53:18.761Z,67.96
2023-02-14T23:58:20.360Z,68.02
